Terminal Aerodrome Forecast
Issued by NWS

Home | Current Version | Previous Version | Text Only | Print | Product List | Glossary On
Versions: 1 2 3 4 5 6 7 8 9 10 11 12 13 14 15
000
FTUS42 KMLB 291129
TAFTIX
TAF
KTIX 291129Z 2912/3012 10005KT P6SM VCSH SCT020 BKN250
     FM291700 09009KT P6SM VCTS SCT030CB BKN250
      TEMPO 2918/2921 3SM TSRA BKN030CB BKN050
     FM300000 12005KT P6SM SCT035 SCT120 BKN250=

USA.gov is the U.S. government's official web portal to all federal, state and local government web resources and services.